sensor_id;sensor_type;location;lat;lon;timestamp;temperature;humidity
13203;DHT22;6666;51.626;7.530;2024-01-30T00:00:40;4.70;99.90
13203;DHT22;6666;51.626;7.530;2024-01-30T00:03:10;4.60;99.90
13203;DHT22;6666;51.626;7.530;2024-01-30T00:05:38;4.60;99.90
13203;DHT22;6666;51.626;7.530;2024-01-30T00:08:06;4.60;99.90
13203;DHT22;6666;51.626;7.530;2024-01-30T00:10:34;4.60;99.90
13203;DHT22;6666;51.626;7.530;2024-01-30T00:13:03;4.50;99.90
13203;DHT22;6666;51.626;7.530;2024-01-30T00:15:31;4.50;99.90
13203;DHT22;6666;51.626;7.530;2024-01-30T00:17:59;4.50;99.90
13203;DHT22;6666;51.626;7.530;2024-01-30T00:20:29;4.50;99.90
13203;DHT22;6666;51.626;7.530;2024-01-30T00:22:57;4.50;99.90
13203;DHT22;6666;51.626;7.530;2024-01-30T00:25:25;4.40;99.90
13203;DHT22;6666;51.626;7.530;2024-01-30T00:27:53;4.40;99.90
13203;DHT22;6666;51.626;7.530;2024-01-30T00:30:21;4.40;99.90
13203;DHT22;6666;51.626;7.530;2024-01-30T00:32:49;4.40;99.90
13203;DHT22;6666;51.626;7.530;2024-01-30T00:35:17;4.40;99.90
13203;DHT22;6666;51.626;7.530;2024-01-30T00:37:47;4.40;99.90
13203;DHT22;6666;51.626;7.530;2024-01-30T00:40:15;4.50;99.90
13203;DHT22;6666;51.626;7.530;2024-01-30T00:42:44;4.40;99.90
13203;DHT22;6666;51.626;7.530;2024-01-30T00:45:14;4.40;99.90
13203;DHT22;6666;51.626;7.530;2024-01-30T00:47:42;4.50;99.90
13203;DHT22;6666;51.626;7.530;2024-01-30T00:50:11;4.50;99.90
13203;DHT22;6666;51.626;7.530;2024-01-30T00:52:39;4.50;99.90
13203;DHT22;6666;51.626;7.530;2024-01-30T00:55:09;4.40;99.90
13203;DHT22;6666;51.626;7.530;2024-01-30T00:57:38;4.40;99.90
13203;DHT22;6666;51.626;7.530;2024-01-30T01:00:08;4.30;99.90
13203;DHT22;6666;51.626;7.530;2024-01-30T01:02:36;4.30;99.90
13203;DHT22;6666;51.626;7.530;2024-01-30T01:05:06;4.30;99.90
13203;DHT22;6666;51.626;7.530;2024-01-30T01:07:35;4.30;99.90
13203;DHT22;6666;51.626;7.530;2024-01-30T01:10:03;4.30;99.90
13203;DHT22;6666;51.626;7.530;2024-01-30T01:12:33;4.30;99.90
13203;DHT22;6666;51.626;7.530;2024-01-30T01:15:01;4.20;99.90
13203;DHT22;6666;51.626;7.530;2024-01-30T01:17:30;4.20;99.90
13203;DHT22;6666;51.626;7.530;2024-01-30T01:19:58;4.20;99.90
13203;DHT22;6666;51.626;7.530;2024-01-30T01:22:28;4.20;99.90
13203;DHT22;6666;51.626;7.530;2024-01-30T01:24:56;4.20;99.90
13203;DHT22;6666;51.626;7.530;2024-01-30T01:27:25;4.20;99.90
13203;DHT22;6666;51.626;7.530;2024-01-30T01:29:54;4.20;99.90
13203;DHT22;6666;51.626;7.530;2024-01-30T01:32:22;4.20;99.90
13203;DHT22;6666;51.626;7.530;2024-01-30T01:34:50;4.20;99.90
13203;DHT22;6666;51.626;7.530;2024-01-30T01:37:19;4.10;99.90
13203;DHT22;6666;51.626;7.530;2024-01-30T01:39:48;4.20;99.90
13203;DHT22;6666;51.626;7.530;2024-01-30T01:42:16;4.20;99.90
13203;DHT22;6666;51.626;7.530;2024-01-30T01:44:44;4.20;99.90
13203;DHT22;6666;51.626;7.530;2024-01-30T01:47:14;4.20;99.90
13203;DHT22;6666;51.626;7.530;2024-01-30T01:49:43;4.10;99.90
13203;DHT22;6666;51.626;7.530;2024-01-30T01:52:11;4.20;99.90
13203;DHT22;6666;51.626;7.530;2024-01-30T01:54:39;4.20;99.90
13203;DHT22;6666;51.626;7.530;2024-01-30T01:57:08;4.10;99.90
13203;DHT22;6666;51.626;7.530;2024-01-30T01:59:37;4.10;99.90
13203;DHT22;6666;51.626;7.530;2024-01-30T02:02:06;4.10;99.90
13203;DHT22;6666;51.626;7.530;2024-01-30T02:04:38;4.10;99.90
13203;DHT22;6666;51.626;7.530;2024-01-30T02:07:07;4.10;99.90
13203;DHT22;6666;51.626;7.530;2024-01-30T02:09:35;4.10;99.90
13203;DHT22;6666;51.626;7.530;2024-01-30T02:12:04;4.10;99.90
13203;DHT22;6666;51.626;7.530;2024-01-30T02:14:32;4.10;99.90
13203;DHT22;6666;51.626;7.530;2024-01-30T02:17:02;4.00;99.90
13203;DHT22;6666;51.626;7.530;2024-01-30T02:19:30;4.10;99.90
13203;DHT22;6666;51.626;7.530;2024-01-30T02:22:00;4.00;99.90
13203;DHT22;6666;51.626;7.530;2024-01-30T02:24:29;4.00;99.90
13203;DHT22;6666;51.626;7.530;2024-01-30T02:26:57;4.00;99.90
13203;DHT22;6666;51.626;7.530;2024-01-30T02:29:27;4.00;99.90
13203;DHT22;6666;51.626;7.530;2024-01-30T02:31:55;3.90;99.90
13203;DHT22;6666;51.626;7.530;2024-01-30T02:34:24;4.00;99.90
13203;DHT22;6666;51.626;7.530;2024-01-30T02:36:52;4.00;99.90
13203;DHT22;6666;51.626;7.530;2024-01-30T02:39:22;4.00;99.90
13203;DHT22;6666;51.626;7.530;2024-01-30T02:41:51;4.00;99.90
13203;DHT22;6666;51.626;7.530;2024-01-30T02:44:19;3.90;99.90
13203;DHT22;6666;51.626;7.530;2024-01-30T02:46:47;3.90;99.90
13203;DHT22;6666;51.626;7.530;2024-01-30T02:49:16;3.90;99.90
13203;DHT22;6666;51.626;7.530;2024-01-30T02:51:44;3.90;99.90
13203;DHT22;6666;51.626;7.530;2024-01-30T02:54:12;4.00;99.90
13203;DHT22;6666;51.626;7.530;2024-01-30T02:56:42;3.90;99.90
13203;DHT22;6666;51.626;7.530;2024-01-30T02:59:10;4.00;99.90
13203;DHT22;6666;51.626;7.530;2024-01-30T03:01:44;4.00;99.90
13203;DHT22;6666;51.626;7.530;2024-01-30T03:04:13;4.00;99.90
13203;DHT22;6666;51.626;7.530;2024-01-30T03:06:45;4.00;99.90
13203;DHT22;6666;51.626;7.530;2024-01-30T03:09:16;4.00;99.90
13203;DHT22;6666;51.626;7.530;2024-01-30T03:11:45;4.10;99.90
13203;DHT22;6666;51.626;7.530;2024-01-30T03:14:13;4.00;99.90
13203;DHT22;6666;51.626;7.530;2024-01-30T03:16:41;4.00;99.90
13203;DHT22;6666;51.626;7.530;2024-01-30T03:19:09;3.90;99.90
13203;DHT22;6666;51.626;7.530;2024-01-30T03:21:37;3.90;99.90
13203;DHT22;6666;51.626;7.530;2024-01-30T03:24:05;4.00;99.90
13203;DHT22;6666;51.626;7.530;2024-01-30T03:26:33;4.00;99.90
13203;DHT22;6666;51.626;7.530;2024-01-30T03:29:03;4.00;99.90
13203;DHT22;6666;51.626;7.530;2024-01-30T03:31:31;4.00;99.90
13203;DHT22;6666;51.626;7.530;2024-01-30T03:33:59;4.00;99.90
13203;DHT22;6666;51.626;7.530;2024-01-30T03:36:28;3.90;99.90
13203;DHT22;6666;51.626;7.530;2024-01-30T03:38:59;4.00;99.90
13203;DHT22;6666;51.626;7.530;2024-01-30T03:41:27;4.00;99.90
13203;DHT22;6666;51.626;7.530;2024-01-30T03:43:56;4.00;99.90
13203;DHT22;6666;51.626;7.530;2024-01-30T03:46:25;4.00;99.90
13203;DHT22;6666;51.626;7.530;2024-01-30T03:48:53;4.00;99.90
13203;DHT22;6666;51.626;7.530;2024-01-30T03:51:21;4.00;99.90
13203;DHT22;6666;51.626;7.530;2024-01-30T03:53:49;4.00;99.90
13203;DHT22;6666;51.626;7.530;2024-01-30T03:56:17;4.10;99.90
13203;DHT22;6666;51.626;7.530;2024-01-30T03:58:45;4.10;99.90
13203;DHT22;6666;51.626;7.530;2024-01-30T04:01:13;4.00;99.90
13203;DHT22;6666;51.626;7.530;2024-01-30T04:03:43;4.00;99.90
13203;DHT22;6666;51.626;7.530;2024-01-30T04:06:12;4.00;99.90
13203;DHT22;6666;51.626;7.530;2024-01-30T04:08:40;4.00;99.90
13203;DHT22;6666;51.626;7.530;2024-01-30T04:11:08;4.00;99.90
13203;DHT22;6666;51.626;7.530;2024-01-30T04:13:37;4.00;99.90
13203;DHT22;6666;51.626;7.530;2024-01-30T04:16:06;4.00;99.90
13203;DHT22;6666;51.626;7.530;2024-01-30T04:18:35;4.00;99.90
13203;DHT22;6666;51.626;7.530;2024-01-30T04:21:04;4.00;99.90
13203;DHT22;6666;51.626;7.530;2024-01-30T04:23:32;4.00;99.90
13203;DHT22;6666;51.626;7.530;2024-01-30T04:26:00;4.00;99.90
13203;DHT22;6666;51.626;7.530;2024-01-30T04:28:29;3.90;99.90
13203;DHT22;6666;51.626;7.530;2024-01-30T04:30:57;3.90;99.90
13203;DHT22;6666;51.626;7.530;2024-01-30T04:33:27;3.90;99.90
13203;DHT22;6666;51.626;7.530;2024-01-30T04:35:55;3.90;99.90
13203;DHT22;6666;51.626;7.530;2024-01-30T04:38:24;3.90;99.90
13203;DHT22;6666;51.626;7.530;2024-01-30T04:40:52;3.90;99.90
13203;DHT22;6666;51.626;7.530;2024-01-30T04:43:20;3.90;99.90
13203;DHT22;6666;51.626;7.530;2024-01-30T04:45:49;3.90;99.90
13203;DHT22;6666;51.626;7.530;2024-01-30T04:48:18;3.90;99.90
13203;DHT22;6666;51.626;7.530;2024-01-30T04:50:46;3.90;99.90
13203;DHT22;6666;51.626;7.530;2024-01-30T04:53:14;3.90;99.90
13203;DHT22;6666;51.626;7.530;2024-01-30T04:55:44;3.90;99.90
13203;DHT22;6666;51.626;7.530;2024-01-30T04:58:12;3.90;99.90
13203;DHT22;6666;51.626;7.530;2024-01-30T05:00:40;3.90;99.90
13203;DHT22;6666;51.626;7.530;2024-01-30T05:03:08;3.90;99.90
13203;DHT22;6666;51.626;7.530;2024-01-30T05:05:37;3.90;99.90
13203;DHT22;6666;51.626;7.530;2024-01-30T05:08:05;3.80;99.90
13203;DHT22;6666;51.626;7.530;2024-01-30T05:10:35;3.90;99.90
13203;DHT22;6666;51.626;7.530;2024-01-30T05:13:04;3.80;99.90
13203;DHT22;6666;51.626;7.530;2024-01-30T05:15:32;3.80;99.90
13203;DHT22;6666;51.626;7.530;2024-01-30T05:18:00;3.80;99.90
13203;DHT22;6666;51.626;7.530;2024-01-30T05:20:31;3.80;99.90
13203;DHT22;6666;51.626;7.530;2024-01-30T05:22:59;3.90;99.90
13203;DHT22;6666;51.626;7.530;2024-01-30T05:25:28;3.90;99.90
13203;DHT22;6666;51.626;7.530;2024-01-30T05:27:56;3.80;99.90
13203;DHT22;6666;51.626;7.530;2024-01-30T05:30:26;3.70;99.90
13203;DHT22;6666;51.626;7.530;2024-01-30T05:32:54;3.70;99.90
13203;DHT22;6666;51.626;7.530;2024-01-30T05:35:22;3.70;99.90
13203;DHT22;6666;51.626;7.530;2024-01-30T05:37:50;3.70;99.90
13203;DHT22;6666;51.626;7.530;2024-01-30T05:40:18;3.80;99.90
13203;DHT22;6666;51.626;7.530;2024-01-30T05:42:47;3.70;99.90
13203;DHT22;6666;51.626;7.530;2024-01-30T05:45:15;3.70;99.90
13203;DHT22;6666;51.626;7.530;2024-01-30T05:47:45;3.70;99.90
13203;DHT22;6666;51.626;7.530;2024-01-30T05:50:13;3.80;99.90
13203;DHT22;6666;51.626;7.530;2024-01-30T05:52:41;3.80;99.90
13203;DHT22;6666;51.626;7.530;2024-01-30T05:55:09;3.80;99.90
13203;DHT22;6666;51.626;7.530;2024-01-30T05:57:38;3.80;99.90
13203;DHT22;6666;51.626;7.530;2024-01-30T06:00:07;3.70;99.90
13203;DHT22;6666;51.626;7.530;2024-01-30T06:02:36;3.70;99.90
13203;DHT22;6666;51.626;7.530;2024-01-30T06:05:05;3.70;99.90
13203;DHT22;6666;51.626;7.530;2024-01-30T06:07:34;3.70;99.90
13203;DHT22;6666;51.626;7.530;2024-01-30T06:10:04;3.80;99.90
13203;DHT22;6666;51.626;7.530;2024-01-30T06:12:32;3.90;99.90
13203;DHT22;6666;51.626;7.530;2024-01-30T06:15:00;3.80;99.90
13203;DHT22;6666;51.626;7.530;2024-01-30T06:17:28;3.80;99.90
13203;DHT22;6666;51.626;7.530;2024-01-30T06:19:56;3.80;99.90
13203;DHT22;6666;51.626;7.530;2024-01-30T06:22:25;3.80;99.90
13203;DHT22;6666;51.626;7.530;2024-01-30T06:24:54;3.90;99.90
13203;DHT22;6666;51.626;7.530;2024-01-30T06:27:22;4.00;99.90
13203;DHT22;6666;51.626;7.530;2024-01-30T06:29:50;3.90;99.90
13203;DHT22;6666;51.626;7.530;2024-01-30T06:32:18;3.80;99.90
13203;DHT22;6666;51.626;7.530;2024-01-30T06:34:46;3.80;99.90
13203;DHT22;6666;51.626;7.530;2024-01-30T06:37:14;3.80;99.90
13203;DHT22;6666;51.626;7.530;2024-01-30T06:39:44;3.80;99.90
13203;DHT22;6666;51.626;7.530;2024-01-30T06:42:12;3.80;99.90
13203;DHT22;6666;51.626;7.530;2024-01-30T06:44:40;3.80;99.90
13203;DHT22;6666;51.626;7.530;2024-01-30T06:47:08;3.90;99.90
13203;DHT22;6666;51.626;7.530;2024-01-30T06:49:36;3.80;99.90
13203;DHT22;6666;51.626;7.530;2024-01-30T06:52:06;3.80;99.90
13203;DHT22;6666;51.626;7.530;2024-01-30T06:54:34;3.80;99.90
13203;DHT22;6666;51.626;7.530;2024-01-30T06:57:04;3.80;99.90
13203;DHT22;6666;51.626;7.530;2024-01-30T06:59:35;3.90;99.90
13203;DHT22;6666;51.626;7.530;2024-01-30T07:02:03;3.90;99.90
13203;DHT22;6666;51.626;7.530;2024-01-30T07:04:32;4.00;99.90
13203;DHT22;6666;51.626;7.530;2024-01-30T07:07:00;3.90;99.90
13203;DHT22;6666;51.626;7.530;2024-01-30T07:09:29;3.90;99.90
13203;DHT22;6666;51.626;7.530;2024-01-30T07:11:57;4.00;99.90
13203;DHT22;6666;51.626;7.530;2024-01-30T07:14:27;3.90;99.90
13203;DHT22;6666;51.626;7.530;2024-01-30T07:16:55;4.00;99.90
13203;DHT22;6666;51.626;7.530;2024-01-30T07:19:23;4.00;99.90
13203;DHT22;6666;51.626;7.530;2024-01-30T07:21:51;4.00;99.90
13203;DHT22;6666;51.626;7.530;2024-01-30T07:24:19;4.00;99.90
13203;DHT22;6666;51.626;7.530;2024-01-30T07:26:47;4.00;99.90
13203;DHT22;6666;51.626;7.530;2024-01-30T07:29:15;4.00;99.90
13203;DHT22;6666;51.626;7.530;2024-01-30T07:31:46;4.10;99.90
13203;DHT22;6666;51.626;7.530;2024-01-30T07:34:14;4.20;99.90
13203;DHT22;6666;51.626;7.530;2024-01-30T07:36:42;4.20;99.90
13203;DHT22;6666;51.626;7.530;2024-01-30T07:39:10;4.20;99.90
13203;DHT22;6666;51.626;7.530;2024-01-30T07:41:38;4.20;99.90
13203;DHT22;6666;51.626;7.530;2024-01-30T07:44:06;4.30;99.90
13203;DHT22;6666;51.626;7.530;2024-01-30T07:46:34;4.40;99.90
13203;DHT22;6666;51.626;7.530;2024-01-30T07:49:04;4.40;99.90
13203;DHT22;6666;51.626;7.530;2024-01-30T07:51:32;4.50;99.90
13203;DHT22;6666;51.626;7.530;2024-01-30T07:54:00;4.50;99.90
13203;DHT22;6666;51.626;7.530;2024-01-30T08:03:52;4.80;99.90
13203;DHT22;6666;51.626;7.530;2024-01-30T08:06:22;4.90;99.90
13203;DHT22;6666;51.626;7.530;2024-01-30T08:08:50;5.00;99.90
13203;DHT22;6666;51.626;7.530;2024-01-30T08:11:20;5.10;99.90
13203;DHT22;6666;51.626;7.530;2024-01-30T08:13:52;5.10;99.90
13203;DHT22;6666;51.626;7.530;2024-01-30T08:16:20;5.20;99.90
13203;DHT22;6666;51.626;7.530;2024-01-30T08:18:48;5.30;99.90
13203;DHT22;6666;51.626;7.530;2024-01-30T08:21:16;5.30;99.90
13203;DHT22;6666;51.626;7.530;2024-01-30T08:23:45;5.40;99.90
13203;DHT22;6666;51.626;7.530;2024-01-30T08:26:13;5.40;99.90
13203;DHT22;6666;51.626;7.530;2024-01-30T08:28:41;5.60;99.90
13203;DHT22;6666;51.626;7.530;2024-01-30T08:31:10;5.70;99.90
13203;DHT22;6666;51.626;7.530;2024-01-30T08:33:38;5.80;99.90
13203;DHT22;6666;51.626;7.530;2024-01-30T08:36:09;5.80;99.90
13203;DHT22;6666;51.626;7.530;2024-01-30T08:38:37;5.90;99.90
13203;DHT22;6666;51.626;7.530;2024-01-30T08:41:07;6.00;99.90
13203;DHT22;6666;51.626;7.530;2024-01-30T08:43:35;6.00;99.90
13203;DHT22;6666;51.626;7.530;2024-01-30T08:46:04;6.10;99.90
13203;DHT22;6666;51.626;7.530;2024-01-30T08:48:32;6.20;99.90
13203;DHT22;6666;51.626;7.530;2024-01-30T08:51:00;6.30;99.90
13203;DHT22;6666;51.626;7.530;2024-01-30T08:53:28;6.30;99.90
13203;DHT22;6666;51.626;7.530;2024-01-30T08:55:56;6.40;99.90
13203;DHT22;6666;51.626;7.530;2024-01-30T08:58:27;6.50;99.90
13203;DHT22;6666;51.626;7.530;2024-01-30T09:00:55;6.50;99.90
13203;DHT22;6666;51.626;7.530;2024-01-30T09:03:23;6.60;99.90
13203;DHT22;6666;51.626;7.530;2024-01-30T09:05:52;6.70;99.90
13203;DHT22;6666;51.626;7.530;2024-01-30T09:08:20;6.80;99.90
13203;DHT22;6666;51.626;7.530;2024-01-30T09:10:53;6.80;99.90
13203;DHT22;6666;51.626;7.530;2024-01-30T09:13:28;6.90;99.90
13203;DHT22;6666;51.626;7.530;2024-01-30T09:15:56;7.00;99.90
13203;DHT22;6666;51.626;7.530;2024-01-30T09:18:24;7.10;99.90
13203;DHT22;6666;51.626;7.530;2024-01-30T09:20:52;7.20;99.90
13203;DHT22;6666;51.626;7.530;2024-01-30T09:23:20;7.20;99.90
13203;DHT22;6666;51.626;7.530;2024-01-30T09:25:48;7.30;99.90
13203;DHT22;6666;51.626;7.530;2024-01-30T09:28:17;7.40;99.90
13203;DHT22;6666;51.626;7.530;2024-01-30T09:30:47;7.50;99.90
13203;DHT22;6666;51.626;7.530;2024-01-30T09:33:15;7.70;99.90
13203;DHT22;6666;51.626;7.530;2024-01-30T09:35:43;7.90;99.90
13203;DHT22;6666;51.626;7.530;2024-01-30T09:38:11;8.20;99.90
13203;DHT22;6666;51.626;7.530;2024-01-30T09:40:39;8.30;99.90
13203;DHT22;6666;51.626;7.530;2024-01-30T09:43:11;8.60;99.90
13203;DHT22;6666;51.626;7.530;2024-01-30T09:45:40;8.70;99.90
13203;DHT22;6666;51.626;7.530;2024-01-30T09:48:12;8.90;99.90
13203;DHT22;6666;51.626;7.530;2024-01-30T09:50:40;9.00;99.90
13203;DHT22;6666;51.626;7.530;2024-01-30T09:53:09;9.10;99.90
13203;DHT22;6666;51.626;7.530;2024-01-30T09:55:37;9.30;99.90
13203;DHT22;6666;51.626;7.530;2024-01-30T09:58:06;9.30;99.90
13203;DHT22;6666;51.626;7.530;2024-01-30T10:00:36;9.40;99.90
13203;DHT22;6666;51.626;7.530;2024-01-30T10:03:04;9.40;99.90
13203;DHT22;6666;51.626;7.530;2024-01-30T10:05:35;9.50;99.90
13203;DHT22;6666;51.626;7.530;2024-01-30T10:08:06;9.50;99.90
13203;DHT22;6666;51.626;7.530;2024-01-30T10:10:35;9.60;99.90
13203;DHT22;6666;51.626;7.530;2024-01-30T10:13:03;9.50;99.90
13203;DHT22;6666;51.626;7.530;2024-01-30T10:15:32;9.50;99.90
13203;DHT22;6666;51.626;7.530;2024-01-30T10:18:02;9.60;99.90
13203;DHT22;6666;51.626;7.530;2024-01-30T10:20:34;9.60;99.90
13203;DHT22;6666;51.626;7.530;2024-01-30T10:23:02;9.60;99.90
13203;DHT22;6666;51.626;7.530;2024-01-30T10:25:31;9.70;99.90
13203;DHT22;6666;51.626;7.530;2024-01-30T10:27:59;9.80;99.90
13203;DHT22;6666;51.626;7.530;2024-01-30T10:30:28;9.80;99.90
13203;DHT22;6666;51.626;7.530;2024-01-30T10:32:56;9.90;99.90
13203;DHT22;6666;51.626;7.530;2024-01-30T10:35:24;9.90;99.90
13203;DHT22;6666;51.626;7.530;2024-01-30T10:37:57;10.00;99.90
13203;DHT22;6666;51.626;7.530;2024-01-30T10:40:28;10.00;99.90
13203;DHT22;6666;51.626;7.530;2024-01-30T10:42:56;10.10;99.90
13203;DHT22;6666;51.626;7.530;2024-01-30T10:45:26;10.20;99.90
13203;DHT22;6666;51.626;7.530;2024-01-30T10:47:55;10.40;99.90
13203;DHT22;6666;51.626;7.530;2024-01-30T10:50:25;10.60;99.90
13203;DHT22;6666;51.626;7.530;2024-01-30T10:52:55;10.60;99.90
13203;DHT22;6666;51.626;7.530;2024-01-30T10:55:23;10.70;99.90
13203;DHT22;6666;51.626;7.530;2024-01-30T10:57:52;10.80;99.90
13203;DHT22;6666;51.626;7.530;2024-01-30T11:00:21;10.80;99.90
13203;DHT22;6666;51.626;7.530;2024-01-30T11:02:51;10.90;99.90
13203;DHT22;6666;51.626;7.530;2024-01-30T11:05:23;11.00;99.90
13203;DHT22;6666;51.626;7.530;2024-01-30T11:08:10;11.00;99.90
13203;DHT22;6666;51.626;7.530;2024-01-30T11:10:45;11.00;99.90
13203;DHT22;6666;51.626;7.530;2024-01-30T11:13:14;11.10;99.90
13203;DHT22;6666;51.626;7.530;2024-01-30T11:15:42;11.20;99.90
13203;DHT22;6666;51.626;7.530;2024-01-30T11:18:10;11.30;99.90
13203;DHT22;6666;51.626;7.530;2024-01-30T11:20:38;11.30;99.90
13203;DHT22;6666;51.626;7.530;2024-01-30T11:23:16;11.30;99.90
13203;DHT22;6666;51.626;7.530;2024-01-30T11:25:44;11.30;99.90
13203;DHT22;6666;51.626;7.530;2024-01-30T11:28:15;11.30;79.90
13203;DHT22;6666;51.626;7.530;2024-01-30T11:30:43;11.40;68.70
13203;DHT22;6666;51.626;7.530;2024-01-30T11:33:14;11.60;27.90
13203;DHT22;6666;51.626;7.530;2024-01-30T11:35:44;11.80;22.60
13203;DHT22;6666;51.626;7.530;2024-01-30T11:38:15;11.90;1.70
13203;DHT22;6666;51.626;7.530;2024-01-30T11:40:44;12.00;1.00
13203;DHT22;6666;51.626;7.530;2024-01-30T11:43:12;12.10;1.00
13203;DHT22;6666;51.626;7.530;2024-01-30T11:45:40;12.10;1.00
13203;DHT22;6666;51.626;7.530;2024-01-30T11:48:11;12.20;1.00
13203;DHT22;6666;51.626;7.530;2024-01-30T11:50:40;12.40;1.00
13203;DHT22;6666;51.626;7.530;2024-01-30T11:53:09;12.30;1.00
13203;DHT22;6666;51.626;7.530;2024-01-30T11:55:38;12.40;1.00
13203;DHT22;6666;51.626;7.530;2024-01-30T11:58:07;12.30;1.00
13203;DHT22;6666;51.626;7.530;2024-01-30T12:00:35;12.30;1.00
13203;DHT22;6666;51.626;7.530;2024-01-30T12:03:04;12.30;1.00
13203;DHT22;6666;51.626;7.530;2024-01-30T12:05:34;12.20;1.00
13203;DHT22;6666;51.626;7.530;2024-01-30T12:08:03;12.20;1.00
13203;DHT22;6666;51.626;7.530;2024-01-30T12:10:32;12.20;1.00
13203;DHT22;6666;51.626;7.530;2024-01-30T12:13:01;12.20;6.30
13203;DHT22;6666;51.626;7.530;2024-01-30T12:15:30;12.20;3.50
13203;DHT22;6666;51.626;7.530;2024-01-30T12:18:04;12.20;6.20
13203;DHT22;6666;51.626;7.530;2024-01-30T12:20:34;12.10;24.90
13203;DHT22;6666;51.626;7.530;2024-01-30T12:23:02;12.10;26.20
13203;DHT22;6666;51.626;7.530;2024-01-30T12:25:31;12.10;24.00
13203;DHT22;6666;51.626;7.530;2024-01-30T12:28:00;12.10;26.80
13203;DHT22;6666;51.626;7.530;2024-01-30T12:30:29;12.00;41.10
13203;DHT22;6666;51.626;7.530;2024-01-30T12:32:57;12.10;41.80
13203;DHT22;6666;51.626;7.530;2024-01-30T12:35:25;12.10;34.90
13203;DHT22;6666;51.626;7.530;2024-01-30T12:37:59;12.10;32.70
13203;DHT22;6666;51.626;7.530;2024-01-30T12:40:27;12.10;38.30
13203;DHT22;6666;51.626;7.530;2024-01-30T12:42:56;12.10;40.80
13203;DHT22;6666;51.626;7.530;2024-01-30T12:45:26;12.10;44.20
13203;DHT22;6666;51.626;7.530;2024-01-30T12:47:54;12.00;54.90
13203;DHT22;6666;51.626;7.530;2024-01-30T12:50:22;12.00;54.00
13203;DHT22;6666;51.626;7.530;2024-01-30T12:52:50;11.90;77.90
13203;DHT22;6666;51.626;7.530;2024-01-30T12:55:18;12.00;68.30
13203;DHT22;6666;51.626;7.530;2024-01-30T12:57:47;11.90;91.00
13203;DHT22;6666;51.626;7.530;2024-01-30T13:00:15;12.00;80.50
13203;DHT22;6666;51.626;7.530;2024-01-30T13:02:46;12.00;83.40
13203;DHT22;6666;51.626;7.530;2024-01-30T13:05:15;12.00;93.50
13203;DHT22;6666;51.626;7.530;2024-01-30T13:07:44;11.90;96.30
13203;DHT22;6666;51.626;7.530;2024-01-30T13:10:12;11.80;99.90
13203;DHT22;6666;51.626;7.530;2024-01-30T13:12:40;11.80;99.90
13203;DHT22;6666;51.626;7.530;2024-01-30T13:15:09;11.80;99.90
13203;DHT22;6666;51.626;7.530;2024-01-30T13:17:38;11.80;99.90
13203;DHT22;6666;51.626;7.530;2024-01-30T13:20:09;11.80;99.90
13203;DHT22;6666;51.626;7.530;2024-01-30T13:22:39;11.80;99.90
13203;DHT22;6666;51.626;7.530;2024-01-30T13:25:07;11.80;99.90
13203;DHT22;6666;51.626;7.530;2024-01-30T13:27:36;11.80;99.90
13203;DHT22;6666;51.626;7.530;2024-01-30T13:30:07;11.80;99.90
13203;DHT22;6666;51.626;7.530;2024-01-30T13:32:36;11.90;99.90
13203;DHT22;6666;51.626;7.530;2024-01-30T13:35:05;11.80;99.90
13203;DHT22;6666;51.626;7.530;2024-01-30T13:37:35;11.80;99.90
13203;DHT22;6666;51.626;7.530;2024-01-30T13:40:05;11.70;99.90
13203;DHT22;6666;51.626;7.530;2024-01-30T13:42:40;11.70;99.90
13203;DHT22;6666;51.626;7.530;2024-01-30T13:45:08;11.80;99.90
13203;DHT22;6666;51.626;7.530;2024-01-30T13:47:38;11.70;99.90
13203;DHT22;6666;51.626;7.530;2024-01-30T13:50:06;11.70;99.90
13203;DHT22;6666;51.626;7.530;2024-01-30T13:52:37;11.60;99.90
13203;DHT22;6666;51.626;7.530;2024-01-30T13:55:11;11.70;99.90
13203;DHT22;6666;51.626;7.530;2024-01-30T13:57:39;11.70;99.90
13203;DHT22;6666;51.626;7.530;2024-01-30T14:00:09;11.60;99.90
13203;DHT22;6666;51.626;7.530;2024-01-30T14:02:41;11.70;99.90
13203;DHT22;6666;51.626;7.530;2024-01-30T14:05:09;11.70;99.90
13203;DHT22;6666;51.626;7.530;2024-01-30T14:07:39;11.70;99.90
13203;DHT22;6666;51.626;7.530;2024-01-30T14:10:09;11.70;99.90
13203;DHT22;6666;51.626;7.530;2024-01-30T14:12:41;11.70;99.90
13203;DHT22;6666;51.626;7.530;2024-01-30T14:15:11;11.70;99.90
13203;DHT22;6666;51.626;7.530;2024-01-30T14:17:54;11.70;99.90
13203;DHT22;6666;51.626;7.530;2024-01-30T14:20:22;11.70;99.90
13203;DHT22;6666;51.626;7.530;2024-01-30T14:22:52;11.70;99.90
13203;DHT22;6666;51.626;7.530;2024-01-30T14:25:23;11.60;99.90
13203;DHT22;6666;51.626;7.530;2024-01-30T14:27:52;11.60;99.90
13203;DHT22;6666;51.626;7.530;2024-01-30T14:30:20;11.50;99.90
13203;DHT22;6666;51.626;7.530;2024-01-30T14:32:48;11.50;99.90
13203;DHT22;6666;51.626;7.530;2024-01-30T14:35:16;11.50;99.90
13203;DHT22;6666;51.626;7.530;2024-01-30T14:37:46;11.50;99.90
13203;DHT22;6666;51.626;7.530;2024-01-30T14:40:15;11.50;99.90
13203;DHT22;6666;51.626;7.530;2024-01-30T14:42:44;11.40;99.90
13203;DHT22;6666;51.626;7.530;2024-01-30T14:45:12;11.50;99.90
13203;DHT22;6666;51.626;7.530;2024-01-30T14:47:40;11.50;99.90
13203;DHT22;6666;51.626;7.530;2024-01-30T14:50:09;11.60;99.90
13203;DHT22;6666;51.626;7.530;2024-01-30T14:52:37;11.60;99.90
13203;DHT22;6666;51.626;7.530;2024-01-30T14:55:07;11.70;99.90
13203;DHT22;6666;51.626;7.530;2024-01-30T14:57:37;11.70;99.90
13203;DHT22;6666;51.626;7.530;2024-01-30T15:00:06;11.70;99.90
13203;DHT22;6666;51.626;7.530;2024-01-30T15:02:35;11.70;99.90
13203;DHT22;6666;51.626;7.530;2024-01-30T15:05:04;11.70;99.90
13203;DHT22;6666;51.626;7.530;2024-01-30T15:07:32;11.60;99.90
13203;DHT22;6666;51.626;7.530;2024-01-30T15:10:08;11.60;99.90
13203;DHT22;6666;51.626;7.530;2024-01-30T15:12:38;11.70;99.90
13203;DHT22;6666;51.626;7.530;2024-01-30T15:15:07;11.60;99.90
13203;DHT22;6666;51.626;7.530;2024-01-30T15:17:37;11.60;99.90
13203;DHT22;6666;51.626;7.530;2024-01-30T15:20:06;11.60;99.90
13203;DHT22;6666;51.626;7.530;2024-01-30T15:22:35;11.50;99.90
13203;DHT22;6666;51.626;7.530;2024-01-30T15:25:04;11.60;99.90
13203;DHT22;6666;51.626;7.530;2024-01-30T15:27:32;11.50;99.90
13203;DHT22;6666;51.626;7.530;2024-01-30T15:30:04;11.40;99.90
13203;DHT22;6666;51.626;7.530;2024-01-30T15:32:33;11.40;99.90
13203;DHT22;6666;51.626;7.530;2024-01-30T15:35:04;11.40;99.90
13203;DHT22;6666;51.626;7.530;2024-01-30T15:37:33;11.40;99.90
13203;DHT22;6666;51.626;7.530;2024-01-30T15:40:02;11.40;99.90
13203;DHT22;6666;51.626;7.530;2024-01-30T15:42:34;11.40;99.90
13203;DHT22;6666;51.626;7.530;2024-01-30T15:45:04;11.40;99.90
13203;DHT22;6666;51.626;7.530;2024-01-30T15:47:32;11.30;99.90
13203;DHT22;6666;51.626;7.530;2024-01-30T15:50:01;11.40;92.90
13203;DHT22;6666;51.626;7.530;2024-01-30T15:52:30;11.40;46.00
13203;DHT22;6666;51.626;7.530;2024-01-30T15:54:59;11.30;19.50
13203;DHT22;6666;51.626;7.530;2024-01-30T15:57:27;11.30;5.40
13203;DHT22;6666;51.626;7.530;2024-01-30T15:59:56;11.20;1.00
13203;DHT22;6666;51.626;7.530;2024-01-30T16:02:26;11.10;1.00
13203;DHT22;6666;51.626;7.530;2024-01-30T16:04:54;11.10;1.00
13203;DHT22;6666;51.626;7.530;2024-01-30T16:07:23;11.00;1.00
13203;DHT22;6666;51.626;7.530;2024-01-30T16:09:51;11.00;1.00
13203;DHT22;6666;51.626;7.530;2024-01-30T16:12:19;10.90;1.00
13203;DHT22;6666;51.626;7.530;2024-01-30T16:14:48;10.90;1.00